Time;durP1;ratioP1;P1;durP2;ratioP2;P2;SDS_P1;SDS_P2;PMS_P1;PMS_P2;Temp;Humidity;BMP_temperature;BMP_pressure;BME280_temperature;BME280_humidity;BME280_pressure;Samples;Min_cycle;Max_cycle;Signal;HPM_P1;HPM_P2
2021/05/25 00:00:58;;;;;;;3.53;2.00;;;;;;;;;;5093935;28;20753;-67
2021/05/25 00:03:24;;;;;;;3.47;2.17;;;;;;;;;;5112304;28;20039;-66
2021/05/25 00:05:50;;;;;;;3.15;1.98;;;;;;;;;;5111970;28;20071;-66
2021/05/25 00:08:16;;;;;;;3.72;2.30;;;;;;;;;;5102138;28;20054;-65
2021/05/25 00:10:43;;;;;;;3.90;2.10;;;;;;;;;;5111292;28;20036;-67
2021/05/25 00:13:10;;;;;;;3.55;2.15;;;;;;;;;;5112137;28;20074;-66
2021/05/25 00:15:36;;;;;;;5.00;2.22;;;;;;;;;;5111936;28;20023;-66
2021/05/25 00:18:03;;;;;;;7.00;2.40;;;;;;;;;;5112123;28;20034;-65
2021/05/25 00:20:30;;;;;;;2.45;2.00;;;;;;;;;;5111294;28;20027;-67
2021/05/25 00:22:56;;;;;;;6.22;2.83;;;;;;;;;;5112299;28;20050;-65
2021/05/25 00:25:22;;;;;;;6.75;2.45;;;;;;;;;;5111747;28;20407;-67
2021/05/25 00:27:49;;;;;;;5.45;2.20;;;;;;;;;;5110664;28;20027;-67
2021/05/25 00:30:17;;;;;;;4.70;2.33;;;;;;;;;;5111461;28;20069;-67
2021/05/25 00:32:43;;;;;;;4.88;2.90;;;;;;;;;;5111904;28;20363;-66
2021/05/25 00:35:10;;;;;;;4.15;2.40;;;;;;;;;;5111752;28;20024;-67
2021/05/25 00:37:36;;;;;;;5.72;2.10;;;;;;;;;;5104982;28;20635;-67
2021/05/25 00:40:03;;;;;;;6.10;2.30;;;;;;;;;;5091174;28;20097;-67
2021/05/25 00:42:29;;;;;;;7.93;2.58;;;;;;;;;;5091206;28;20493;-67
2021/05/25 00:44:55;;;;;;;4.78;2.30;;;;;;;;;;5091126;28;20129;-67
2021/05/25 00:47:31;;;;;;;5.45;2.58;;;;;;;;;;5091121;28;20036;-67
2021/05/25 00:50:19;;;;;;;4.90;2.30;;;;;;;;;;5091143;28;20060;-66
2021/05/25 00:52:51;;;;;;;5.78;2.53;;;;;;;;;;5090470;28;20088;-68
2021/05/25 00:55:21;;;;;;;3.22;2.90;;;;;;;;;;5091645;28;20020;-68
2021/05/25 00:57:48;;;;;;;7.57;3.13;;;;;;;;;;5072527;28;20028;-67
2021/05/25 01:00:15;;;;;;;5.32;2.92;;;;;;;;;;5090788;28;20058;-67
2021/05/25 01:02:42;;;;;;;7.00;2.50;;;;;;;;;;5091968;28;20028;-67
2021/05/25 01:05:10;;;;;;;10.18;2.95;;;;;;;;;;5111310;28;20182;-67
2021/05/25 01:07:36;;;;;;;4.30;2.83;;;;;;;;;;5111125;28;20495;-68
2021/05/25 01:10:02;;;;;;;11.20;2.80;;;;;;;;;;5111047;28;20028;-66
2021/05/25 01:12:31;;;;;;;8.52;4.25;;;;;;;;;;5096427;28;20016;-67
2021/05/25 01:15:05;;;;;;;3.97;2.65;;;;;;;;;;5106495;28;20032;-66
2021/05/25 01:17:31;;;;;;;4.07;2.42;;;;;;;;;;5111233;28;20415;-67
2021/05/25 01:19:59;;;;;;;4.85;2.60;;;;;;;;;;5111034;28;20028;-67
2021/05/25 01:22:25;;;;;;;4.03;3.03;;;;;;;;;;5110732;28;20485;-67
2021/05/25 01:24:51;;;;;;;6.35;3.33;;;;;;;;;;5110812;28;20031;-68
2021/05/25 01:27:17;;;;;;;6.15;2.78;;;;;;;;;;5092166;28;20405;-68
2021/05/25 01:29:43;;;;;;;5.55;2.70;;;;;;;;;;5109862;28;20059;-67
2021/05/25 01:32:09;;;;;;;5.18;2.92;;;;;;;;;;5110540;28;20032;-67
2021/05/25 01:34:36;;;;;;;6.28;3.38;;;;;;;;;;5110766;28;20502;-68
2021/05/25 01:37:03;;;;;;;13.05;3.60;;;;;;;;;;5110591;28;20035;-67
2021/05/25 01:39:29;;;;;;;5.10;3.00;;;;;;;;;;5110256;28;20449;-68
2021/05/25 01:41:55;;;;;;;5.85;2.80;;;;;;;;;;5110439;28;20039;-67
2021/05/25 01:44:22;;;;;;;3.85;2.90;;;;;;;;;;5110530;28;20153;-67
2021/05/25 01:46:48;;;;;;;6.20;3.10;;;;;;;;;;5109542;28;20576;-68
2021/05/25 01:49:15;;;;;;;3.95;2.47;;;;;;;;;;5110295;28;20497;-67
2021/05/25 01:51:45;;;;;;;3.13;2.50;;;;;;;;;;5110207;28;20515;-64
2021/05/25 01:54:11;;;;;;;3.92;2.55;;;;;;;;;;5110186;28;20024;-67
2021/05/25 01:56:37;;;;;;;5.82;3.30;;;;;;;;;;5110078;28;20030;-68
2021/05/25 01:59:03;;;;;;;5.80;2.72;;;;;;;;;;5110256;28;20106;-67
2021/05/25 02:01:29;;;;;;;4.32;3.20;;;;;;;;;;5110060;28;20028;-67
2021/05/25 02:03:55;;;;;;;11.18;3.55;;;;;;;;;;5094445;28;20038;-66
2021/05/25 02:06:21;;;;;;;5.40;3.17;;;;;;;;;;5089635;28;20518;-66
2021/05/25 02:08:47;;;;;;;5.18;2.78;;;;;;;;;;5089433;28;20123;-68
2021/05/25 02:11:14;;;;;;;6.70;3.35;;;;;;;;;;5089782;28;20709;-68
2021/05/25 02:13:40;;;;;;;6.07;2.80;;;;;;;;;;5093576;28;20019;-67
2021/05/25 02:16:08;;;;;;;4.85;3.03;;;;;;;;;;5109582;28;20019;-67
2021/05/25 02:18:35;;;;;;;5.75;3.00;;;;;;;;;;5109736;28;20019;-67
2021/05/25 02:21:02;;;;;;;6.65;3.33;;;;;;;;;;5091009;28;20510;-68
2021/05/25 02:23:28;;;;;;;5.07;3.10;;;;;;;;;;5089478;28;20434;-67
2021/05/25 02:25:55;;;;;;;8.85;3.22;;;;;;;;;;5102014;27;20027;-67
2021/05/25 02:28:21;;;;;;;7.03;3.45;;;;;;;;;;5130388;27;20104;-66
2021/05/25 02:30:47;;;;;;;5.63;3.58;;;;;;;;;;5130370;27;20027;-67
2021/05/25 02:33:15;;;;;;;6.60;3.35;;;;;;;;;;5130243;27;20034;-67
2021/05/25 02:35:42;;;;;;;11.68;3.30;;;;;;;;;;5130193;27;20051;-67
2021/05/25 02:38:08;;;;;;;8.88;4.35;;;;;;;;;;5090009;28;20025;-67
2021/05/25 02:40:35;;;;;;;6.18;3.03;;;;;;;;;;5088888;28;20101;-67
2021/05/25 02:43:01;;;;;;;6.53;3.22;;;;;;;;;;5089350;28;20039;-67
2021/05/25 02:45:28;;;;;;;7.07;3.55;;;;;;;;;;5089224;28;20484;-67
2021/05/25 02:47:54;;;;;;;6.80;3.85;;;;;;;;;;5089160;28;20507;-67
2021/05/25 02:50:20;;;;;;;8.82;4.80;;;;;;;;;;5089092;28;20594;-67
2021/05/25 02:52:48;;;;;;;7.95;4.88;;;;;;;;;;5092425;28;20073;-67
2021/05/25 02:55:16;;;;;;;8.65;4.30;;;;;;;;;;5113296;28;20478;-68
2021/05/25 02:57:42;;;;;;;5.20;3.65;;;;;;;;;;5113672;28;20032;-68
2021/05/25 03:00:09;;;;;;;8.80;3.90;;;;;;;;;;5113959;28;20742;-66
2021/05/25 03:02:35;;;;;;;8.05;4.10;;;;;;;;;;5112943;28;20031;-67
2021/05/25 03:05:01;;;;;;;7.53;4.10;;;;;;;;;;5093141;28;20032;-67
2021/05/25 03:07:28;;;;;;;8.52;4.07;;;;;;;;;;5093087;28;20823;-67
2021/05/25 03:09:54;;;;;;;9.32;4.45;;;;;;;;;;5093722;28;20131;-66
2021/05/25 03:12:20;;;;;;;7.80;4.30;;;;;;;;;;5113416;28;20031;-67
2021/05/25 03:14:46;;;;;;;9.73;4.45;;;;;;;;;;5113216;28;20400;-68
2021/05/25 03:17:12;;;;;;;8.30;4.47;;;;;;;;;;5113285;28;20493;-67
2021/05/25 03:19:38;;;;;;;9.77;5.07;;;;;;;;;;5113387;28;20096;-66
2021/05/25 03:22:04;;;;;;;13.45;4.75;;;;;;;;;;5113297;28;20035;-66
2021/05/25 03:24:30;;;;;;;8.88;4.47;;;;;;;;;;5097646;28;20579;-67
2021/05/25 03:26:57;;;;;;;12.02;5.65;;;;;;;;;;5095044;28;20106;-67
2021/05/25 03:29:23;;;;;;;8.63;4.85;;;;;;;;;;5092796;28;20115;-66
2021/05/25 03:31:49;;;;;;;7.85;4.78;;;;;;;;;;5092637;28;20506;-67
2021/05/25 03:34:15;;;;;;;10.95;6.50;;;;;;;;;;5092716;28;20414;-67
2021/05/25 03:36:41;;;;;;;9.52;4.70;;;;;;;;;;5092645;28;20030;-66
2021/05/25 03:39:07;;;;;;;9.90;4.50;;;;;;;;;;5092388;28;20054;-66
2021/05/25 03:41:33;;;;;;;13.23;4.97;;;;;;;;;;5092476;28;20063;-67
2021/05/25 03:44:00;;;;;;;7.25;4.47;;;;;;;;;;5093093;28;20562;-66
2021/05/25 03:46:27;;;;;;;21.25;6.35;;;;;;;;;;5092340;28;20483;-67
2021/05/25 03:48:53;;;;;;;9.82;5.65;;;;;;;;;;5092365;28;20032;-67
2021/05/25 03:51:19;;;;;;;10.43;4.30;;;;;;;;;;5092401;28;20064;-67
2021/05/25 03:53:46;;;;;;;7.60;4.43;;;;;;;;;;5092002;28;20368;-67
2021/05/25 03:58:50;;;;;;;12.05;5.15;;;;;;;;;;5092339;28;20061;-67
2021/05/25 04:01:21;;;;;;;10.45;5.20;;;;;;;;;;5092855;28;20020;-67
2021/05/25 04:03:47;;;;;;;12.23;4.90;;;;;;;;;;5108842;28;20023;-67
2021/05/25 04:06:13;;;;;;;9.23;5.50;;;;;;;;;;5112520;28;20095;-68
2021/05/25 04:08:40;;;;;;;15.30;4.65;;;;;;;;;;5112021;28;20058;-66
2021/05/25 04:11:06;;;;;;;9.23;5.13;;;;;;;;;;5112142;28;20035;-66
2021/05/25 04:13:32;;;;;;;8.70;4.88;;;;;;;;;;5112404;28;20051;-66
2021/05/25 04:15:58;;;;;;;13.30;5.35;;;;;;;;;;5112227;28;20032;-65
2021/05/25 04:18:24;;;;;;;12.15;5.85;;;;;;;;;;5106768;28;20077;-67
2021/05/25 04:20:50;;;;;;;13.70;6.68;;;;;;;;;;5091794;28;20036;-67
2021/05/25 04:23:16;;;;;;;12.82;5.22;;;;;;;;;;5091697;28;20028;-66
2021/05/25 04:25:43;;;;;;;11.57;5.25;;;;;;;;;;5091523;28;20066;-67
2021/05/25 04:28:09;;;;;;;13.82;6.10;;;;;;;;;;5091565;28;20107;-67
2021/05/25 04:30:35;;;;;;;7.75;4.93;;;;;;;;;;5091499;28;20367;-67
2021/05/25 04:33:02;;;;;;;7.95;5.20;;;;;;;;;;5091665;28;20073;-68
2021/05/25 04:35:28;;;;;;;9.80;4.55;;;;;;;;;;5092126;28;20035;-66
2021/05/25 04:37:56;;;;;;;6.53;4.20;;;;;;;;;;5091265;28;20020;-66
2021/05/25 04:40:22;;;;;;;10.05;5.00;;;;;;;;;;5091528;28;20129;-66
2021/05/25 04:42:48;;;;;;;7.75;4.80;;;;;;;;;;5091312;28;20024;-67
2021/05/25 04:45:15;;;;;;;9.35;5.28;;;;;;;;;;5091257;28;20035;-66
2021/05/25 04:47:41;;;;;;;7.60;4.25;;;;;;;;;;5091434;28;20028;-66
2021/05/25 04:50:08;;;;;;;8.80;4.43;;;;;;;;;;5072571;28;20506;-66
2021/05/25 04:52:35;;;;;;;11.45;4.70;;;;;;;;;;5079205;28;20069;-67
2021/05/25 04:55:02;;;;;;;6.55;4.15;;;;;;;;;;5111483;28;20108;-67
2021/05/25 04:57:29;;;;;;;10.70;4.80;;;;;;;;;;5111317;28;20027;-67
2021/05/25 04:59:55;;;;;;;8.15;4.10;;;;;;;;;;5111352;28;20367;-67
2021/05/25 05:02:21;;;;;;;14.02;5.13;;;;;;;;;;5111403;28;20054;-67
2021/05/25 05:04:48;;;;;;;9.38;4.20;;;;;;;;;;5110922;28;20034;-67
2021/05/25 05:07:14;;;;;;;8.20;4.80;;;;;;;;;;5111321;28;20070;-67
2021/05/25 05:09:40;;;;;;;5.78;3.97;;;;;;;;;;5091648;28;20078;-68
2021/05/25 05:12:07;;;;;;;8.45;5.07;;;;;;;;;;5111401;28;20531;-67
2021/05/25 05:14:33;;;;;;;7.10;4.63;;;;;;;;;;5110186;28;20035;-67
2021/05/25 05:16:59;;;;;;;8.60;4.00;;;;;;;;;;5111499;28;20407;-67
2021/05/25 05:19:25;;;;;;;9.02;4.50;;;;;;;;;;5110930;28;20026;-67
2021/05/25 05:21:52;;;;;;;9.30;4.22;;;;;;;;;;5110983;28;20050;-67
2021/05/25 05:24:18;;;;;;;5.90;3.83;;;;;;;;;;5110686;28;20027;-67
2021/05/25 05:26:44;;;;;;;7.82;4.25;;;;;;;;;;5110547;28;20051;-67
2021/05/25 05:29:10;;;;;;;7.32;3.97;;;;;;;;;;5092370;28;20394;-66
2021/05/25 05:31:36;;;;;;;6.90;3.80;;;;;;;;;;5110710;28;20031;-67
2021/05/25 05:34:03;;;;;;;7.60;4.20;;;;;;;;;;5110648;28;20752;-66
2021/05/25 05:36:30;;;;;;;8.30;4.10;;;;;;;;;;5110810;28;20035;-67
2021/05/25 05:38:56;;;;;;;9.93;4.38;;;;;;;;;;5110888;28;20462;-67
2021/05/25 05:41:22;;;;;;;10.02;4.35;;;;;;;;;;5110600;28;20032;-66
2021/05/25 05:43:48;;;;;;;13.88;5.10;;;;;;;;;;5109672;28;20024;-67
2021/05/25 05:46:15;;;;;;;6.50;3.95;;;;;;;;;;5110497;28;20031;-66
2021/05/25 05:48:41;;;;;;;12.82;4.47;;;;;;;;;;5110196;28;20077;-67
2021/05/25 05:51:07;;;;;;;11.90;4.38;;;;;;;;;;5110449;28;20446;-67
2021/05/25 05:53:34;;;;;;;6.13;3.88;;;;;;;;;;5110299;28;20394;-68
2021/05/25 05:56:00;;;;;;;9.70;4.30;;;;;;;;;;5110274;28;20566;-66
2021/05/25 05:58:26;;;;;;;8.35;3.75;;;;;;;;;;5105236;28;20032;-68
2021/05/25 06:00:52;;;;;;;10.93;4.78;;;;;;;;;;5096049;28;20028;-67
2021/05/25 06:03:18;;;;;;;7.93;4.47;;;;;;;;;;5087817;28;20111;-66
2021/05/25 06:05:46;;;;;;;6.65;3.78;;;;;;;;;;5087977;28;20023;-66
2021/05/25 06:08:13;;;;;;;9.85;3.97;;;;;;;;;;5087893;28;20565;-67
2021/05/25 06:10:42;;;;;;;8.32;4.65;;;;;;;;;;5093286;28;20082;-66
2021/05/25 06:13:08;;;;;;;9.52;4.85;;;;;;;;;;5094380;28;20081;-67
2021/05/25 06:15:36;;;;;;;7.03;4.00;;;;;;;;;;5107315;28;20027;-67
2021/05/25 06:18:02;;;;;;;7.30;3.95;;;;;;;;;;5089386;28;20050;-67
2021/05/25 06:20:28;;;;;;;6.05;4.35;;;;;;;;;;5089678;28;20107;-66
2021/05/25 06:22:55;;;;;;;10.70;4.28;;;;;;;;;;5089585;28;20028;-66
2021/05/25 06:25:22;;;;;;;6.80;4.00;;;;;;;;;;5089310;28;20088;-68
2021/05/25 06:27:48;;;;;;;8.77;4.07;;;;;;;;;;5089230;28;20032;-66
2021/05/25 06:30:14;;;;;;;7.82;3.85;;;;;;;;;;5089319;28;20024;-66
2021/05/25 06:32:40;;;;;;;7.88;3.85;;;;;;;;;;5089297;28;20032;-68
2021/05/25 06:35:07;;;;;;;6.13;3.63;;;;;;;;;;5090081;28;20035;-68
2021/05/25 06:37:33;;;;;;;8.43;4.00;;;;;;;;;;5089257;28;20020;-68
2021/05/25 06:39:59;;;;;;;5.72;3.15;;;;;;;;;;5089336;28;20044;-68
2021/05/25 06:42:25;;;;;;;6.97;3.50;;;;;;;;;;5089244;28;20039;-68
2021/05/25 06:44:51;;;;;;;6.22;3.17;;;;;;;;;;5089238;28;20039;-67
2021/05/25 06:47:18;;;;;;;4.55;3.60;;;;;;;;;;5089197;28;20031;-68
2021/05/25 06:49:44;;;;;;;7.40;3.58;;;;;;;;;;5089210;28;20027;-68
2021/05/25 06:52:11;;;;;;;7.72;3.78;;;;;;;;;;5094819;28;20035;-68
2021/05/25 06:54:37;;;;;;;7.72;4.25;;;;;;;;;;5106693;28;20020;-68
2021/05/25 06:57:04;;;;;;;5.68;3.63;;;;;;;;;;5107997;28;20023;-69
2021/05/25 06:59:30;;;;;;;8.25;3.92;;;;;;;;;;5095876;28;20189;-68
2021/05/25 07:01:56;;;;;;;9.38;4.20;;;;;;;;;;5102301;28;20429;-70
2021/05/25 07:04:22;;;;;;;8.57;4.03;;;;;;;;;;5097199;28;20035;-67
2021/05/25 07:06:48;;;;;;;12.25;3.97;;;;;;;;;;5093226;28;20024;-68
2021/05/25 07:09:14;;;;;;;13.32;4.03;;;;;;;;;;5096848;28;20040;-68
2021/05/25 07:11:40;;;;;;;7.88;3.88;;;;;;;;;;5104875;28;20099;-67
2021/05/25 07:14:07;;;;;;;6.78;3.80;;;;;;;;;;5105669;28;20028;-67
2021/05/25 07:16:34;;;;;;;9.85;4.60;;;;;;;;;;5092438;28;20039;-68
2021/05/25 07:19:01;;;;;;;7.57;4.43;;;;;;;;;;5098353;28;20486;-67
2021/05/25 07:21:27;;;;;;;9.10;4.03;;;;;;;;;;5104725;28;20035;-67
2021/05/25 07:23:54;;;;;;;11.75;4.00;;;;;;;;;;5092879;28;20089;-68
2021/05/25 07:26:20;;;;;;;8.73;4.10;;;;;;;;;;5093348;28;20023;-66
2021/05/25 07:28:46;;;;;;;10.13;3.88;;;;;;;;;;5107480;28;20059;-67
2021/05/25 07:31:12;;;;;;;6.95;4.10;;;;;;;;;;5102657;28;20506;-67
2021/05/25 07:33:39;;;;;;;7.25;3.88;;;;;;;;;;5096008;28;20103;-67
2021/05/25 07:36:05;;;;;;;8.65;4.35;;;;;;;;;;5099954;28;20032;-68
2021/05/25 07:38:31;;;;;;;5.88;3.83;;;;;;;;;;5100426;28;20027;-67
2021/05/25 07:40:57;;;;;;;6.25;4.07;;;;;;;;;;5112068;28;20027;-69
2021/05/25 07:43:23;;;;;;;7.53;3.90;;;;;;;;;;5103232;28;20042;-67
2021/05/25 07:45:50;;;;;;;11.18;4.35;;;;;;;;;;5099343;28;20032;-67
2021/05/25 07:48:16;;;;;;;8.60;4.03;;;;;;;;;;5106598;28;20070;-66
2021/05/25 07:50:42;;;;;;;10.25;4.00;;;;;;;;;;5101030;28;20436;-67
2021/05/25 07:53:08;;;;;;;11.45;5.25;;;;;;;;;;5096697;28;20028;-67
2021/05/25 07:55:35;;;;;;;10.52;4.20;;;;;;;;;;5098259;28;20030;-67
2021/05/25 07:58:02;;;;;;;9.23;3.78;;;;;;;;;;5104552;28;20024;-68
2021/05/25 08:00:29;;;;;;;7.25;4.22;;;;;;;;;;5098436;28;20057;-67
2021/05/25 08:02:56;;;;;;;10.15;4.00;;;;;;;;;;5093421;28;20054;-69
2021/05/25 08:05:25;;;;;;;9.65;4.05;;;;;;;;;;5101388;28;20023;-68
2021/05/25 08:07:51;;;;;;;7.78;3.65;;;;;;;;;;5098914;28;20097;-68
2021/05/25 08:10:17;;;;;;;7.25;3.65;;;;;;;;;;5109545;28;20055;-68
2021/05/25 08:12:44;;;;;;;5.53;3.53;;;;;;;;;;5102184;28;20035;-66
2021/05/25 08:15:11;;;;;;;7.35;4.30;;;;;;;;;;5109872;28;20023;-67
2021/05/25 08:17:49;;;;;;;6.28;3.25;;;;;;;;;;5097230;28;20055;-68
2021/05/25 08:20:16;;;;;;;5.43;3.42;;;;;;;;;;5092184;28;20028;-69
2021/05/25 08:22:46;;;;;;;8.20;3.17;;;;;;;;;;5101912;28;20554;-69
2021/05/25 08:25:13;;;;;;;6.90;3.80;;;;;;;;;;5106980;28;20043;-68
2021/05/25 08:27:39;;;;;;;8.57;3.78;;;;;;;;;;5096561;28;20085;-67
2021/05/25 08:30:06;;;;;;;12.73;3.22;;;;;;;;;;5101067;28;20428;-67
2021/05/25 08:32:33;;;;;;;4.63;2.92;;;;;;;;;;5097935;28;20024;-67
2021/05/25 08:35:00;;;;;;;6.55;3.30;;;;;;;;;;5093506;28;20032;-67
2021/05/25 08:37:26;;;;;;;8.00;3.50;;;;;;;;;;5103933;28;20047;-66
2021/05/25 08:39:52;;;;;;;4.97;3.25;;;;;;;;;;5105187;28;20378;-66
2021/05/25 08:42:18;;;;;;;6.43;3.03;;;;;;;;;;5105735;28;20028;-67
2021/05/25 08:44:44;;;;;;;8.50;3.63;;;;;;;;;;5109549;28;20032;-68
2021/05/25 08:47:12;;;;;;;6.15;3.33;;;;;;;;;;5109831;28;20149;-68
2021/05/25 08:49:40;;;;;;;5.80;3.33;;;;;;;;;;5108728;28;20039;-67
2021/05/25 08:52:06;;;;;;;6.65;3.15;;;;;;;;;;5105164;28;20030;-69
2021/05/25 08:54:33;;;;;;;9.20;3.25;;;;;;;;;;5111423;28;20030;-67
2021/05/25 08:56:59;;;;;;;4.78;3.25;;;;;;;;;;5096265;28;20149;-65
2021/05/25 08:59:26;;;;;;;5.20;3.45;;;;;;;;;;5109588;28;20047;-68
2021/05/25 09:01:52;;;;;;;7.50;3.65;;;;;;;;;;5093371;28;20024;-67
2021/05/25 09:04:18;;;;;;;5.90;3.08;;;;;;;;;;5073393;28;20438;-68
2021/05/25 09:06:46;;;;;;;6.63;3.35;;;;;;;;;;5097777;28;20110;-67
2021/05/25 09:09:21;;;;;;;7.05;3.17;;;;;;;;;;5103496;28;20052;-68
2021/05/25 09:12:05;;;;;;;6.95;4.05;;;;;;;;;;5100706;28;20020;-68
2021/05/25 09:14:33;;;;;;;7.10;3.22;;;;;;;;;;5110489;28;20086;-66
2021/05/25 09:17:15;;;;;;;5.00;3.20;;;;;;;;;;5097520;28;20027;-69
2021/05/25 09:19:48;;;;;;;6.63;3.75;;;;;;;;;;5091083;28;20024;-68
2021/05/25 09:22:25;;;;;;;5.85;2.90;;;;;;;;;;5106536;28;20116;-68
2021/05/25 09:24:51;;;;;;;6.78;3.42;;;;;;;;;;5102148;28;20062;-69
2021/05/25 09:27:32;;;;;;;4.22;2.85;;;;;;;;;;5094195;28;20093;-68
2021/05/25 09:30:10;;;;;;;6.85;2.78;;;;;;;;;;5091969;28;20409;-67
2021/05/25 09:33:00;;;;;;;6.32;3.30;;;;;;;;;;5109205;28;20031;-68
2021/05/25 09:35:27;;;;;;;10.30;3.42;;;;;;;;;;5098064;28;20040;-67
2021/05/25 09:37:55;;;;;;;4.00;2.92;;;;;;;;;;5108397;28;20097;-67
2021/05/25 09:40:24;;;;;;;8.00;3.30;;;;;;;;;;5095333;28;20032;-66
2021/05/25 09:42:53;;;;;;;6.18;3.05;;;;;;;;;;5093839;28;20040;-67
2021/05/25 09:45:20;;;;;;;8.50;3.78;;;;;;;;;;5091382;28;20028;-67
2021/05/25 09:47:53;;;;;;;5.95;2.72;;;;;;;;;;5094113;28;20486;-68
2021/05/25 09:50:25;;;;;;;6.40;2.85;;;;;;;;;;5094068;28;20063;-68
2021/05/25 09:53:01;;;;;;;5.50;2.80;;;;;;;;;;5095239;28;20487;-68
2021/05/25 09:55:28;;;;;;;7.53;2.70;;;;;;;;;;5096524;28;20023;-69
2021/05/25 09:57:58;;;;;;;6.25;2.70;;;;;;;;;;5091902;28;20428;-69
2021/05/25 10:00:25;;;;;;;5.60;3.17;;;;;;;;;;5106321;28;20469;-67
2021/05/25 10:03:14;;;;;;;3.70;3.40;;;;;;;;;;5097411;28;20043;-68
2021/05/25 10:05:45;;;;;;;4.10;2.90;;;;;;;;;;5101690;28;20061;-67
2021/05/25 10:08:12;;;;;;;5.38;2.80;;;;;;;;;;5089629;28;20105;-68
2021/05/25 10:10:39;;;;;;;5.40;3.55;;;;;;;;;;5089733;28;20472;-70
2021/05/25 10:13:05;;;;;;;5.43;2.70;;;;;;;;;;5093509;28;20031;-68
2021/05/25 10:15:31;;;;;;;5.20;3.58;;;;;;;;;;5097732;28;20031;-70
2021/05/25 10:20:28;;;;;;;3.78;2.30;;;;;;;;;;5097761;28;20024;-69
2021/05/25 10:22:55;;;;;;;5.22;3.60;;;;;;;;;;5093081;28;20135;-68
2021/05/25 10:25:22;;;;;;;3.67;2.35;;;;;;;;;;5093283;28;20051;-68
2021/05/25 10:27:48;;;;;;;4.72;2.53;;;;;;;;;;5108625;28;20039;-68
2021/05/25 10:30:23;;;;;;;4.82;3.10;;;;;;;;;;5108316;28;20144;-67
2021/05/25 10:32:50;;;;;;;4.10;3.00;;;;;;;;;;5101378;28;20032;-69
2021/05/25 10:35:20;;;;;;;4.32;2.28;;;;;;;;;;5093146;28;20028;-67
2021/05/25 10:38:05;;;;;;;3.33;2.30;;;;;;;;;;5096265;28;20519;-69
2021/05/25 10:40:38;;;;;;;3.22;2.30;;;;;;;;;;5090607;28;20494;-68
2021/05/25 10:43:22;;;;;;;6.47;2.55;;;;;;;;;;5107917;28;20056;-67
2021/05/25 10:45:49;;;;;;;4.03;2.83;;;;;;;;;;5098336;28;20032;-68
2021/05/25 10:48:15;;;;;;;6.35;2.40;;;;;;;;;;5096313;28;20048;-69
2021/05/25 10:50:50;;;;;;;3.38;2.42;;;;;;;;;;5089980;28;20066;-68
2021/05/25 10:53:18;;;;;;;3.53;2.20;;;;;;;;;;5089423;28;20103;-68
2021/05/25 10:55:44;;;;;;;3.33;2.40;;;;;;;;;;5092890;28;20035;-67
2021/05/25 10:58:19;;;;;;;4.88;2.85;;;;;;;;;;5092724;28;20108;-68
2021/05/25 11:00:48;;;;;;;7.18;2.88;;;;;;;;;;5092842;28;20032;-67
2021/05/25 11:03:14;;;;;;;4.85;2.63;;;;;;;;;;5095160;28;20494;-69
2021/05/25 11:05:46;;;;;;;8.35;2.40;;;;;;;;;;5109325;28;20052;-68
2021/05/25 11:08:17;;;;;;;3.92;2.20;;;;;;;;;;5091608;28;20052;-66
2021/05/25 11:10:43;;;;;;;4.95;2.50;;;;;;;;;;5109837;28;20067;-68
2021/05/25 11:13:19;;;;;;;2.92;2.28;;;;;;;;;;5098673;28;20093;-69
2021/05/25 11:16:05;;;;;;;5.03;3.03;;;;;;;;;;5093498;28;20031;-68
2021/05/25 11:18:41;;;;;;;5.38;2.47;;;;;;;;;;5110307;28;20482;-68
2021/05/25 11:21:29;;;;;;;4.18;2.33;;;;;;;;;;5104578;28;20032;-67
2021/05/25 11:23:57;;;;;;;5.97;2.88;;;;;;;;;;5102334;28;20039;-68
2021/05/25 11:26:42;;;;;;;6.13;3.40;;;;;;;;;;5102365;28;20062;-69
2021/05/25 11:29:18;;;;;;;4.90;2.70;;;;;;;;;;5109137;28;20085;-69
2021/05/25 11:31:44;;;;;;;5.22;2.88;;;;;;;;;;5109204;28;20031;-68
2021/05/25 11:34:10;;;;;;;5.65;3.75;;;;;;;;;;5096004;28;20035;-68
2021/05/25 11:36:37;;;;;;;6.10;3.60;;;;;;;;;;5098990;28;20479;-67
2021/05/25 11:39:08;;;;;;;4.85;3.47;;;;;;;;;;5096811;28;20091;-66
2021/05/25 11:41:34;;;;;;;4.43;2.60;;;;;;;;;;5107817;28;20092;-67
2021/05/25 11:44:11;;;;;;;2.40;2.20;;;;;;;;;;5094806;28;20570;-66
2021/05/25 11:46:52;;;;;;;3.10;2.80;;;;;;;;;;5092889;28;20031;-67
2021/05/25 11:49:19;;;;;;;4.20;2.85;;;;;;;;;;5096005;28;20024;-69
2021/05/25 11:51:45;;;;;;;3.28;2.00;;;;;;;;;;5093469;28;20063;-67
2021/05/25 11:54:13;;;;;;;3.60;2.88;;;;;;;;;;5092307;28;20027;-70
2021/05/25 11:56:40;;;;;;;4.57;2.60;;;;;;;;;;5097997;28;20391;-68
2021/05/25 11:59:12;;;;;;;2.72;2.20;;;;;;;;;;5093101;28;20115;-69
2021/05/25 12:01:39;;;;;;;2.75;1.65;;;;;;;;;;5092559;28;20031;-67
2021/05/25 12:04:06;;;;;;;3.95;1.88;;;;;;;;;;5098789;28;20054;-67
2021/05/25 12:06:32;;;;;;;2.45;1.70;;;;;;;;;;5112101;28;20059;-66
2021/05/25 12:09:08;;;;;;;3.03;2.38;;;;;;;;;;5095816;28;20054;-67
2021/05/25 12:11:41;;;;;;;3.13;2.60;;;;;;;;;;5091918;28;20031;-68
2021/05/25 12:14:11;;;;;;;1.80;1.67;;;;;;;;;;5097264;28;20124;-68
2021/05/25 12:16:38;;;;;;;3.75;2.70;;;;;;;;;;5092132;28;20020;-68
2021/05/25 12:19:05;;;;;;;8.80;2.58;;;;;;;;;;5091866;28;20032;-67
2021/05/25 12:21:31;;;;;;;3.25;2.30;;;;;;;;;;5091850;28;20111;-69
2021/05/25 12:23:58;;;;;;;4.13;2.20;;;;;;;;;;5091888;28;20035;-68
2021/05/25 12:26:24;;;;;;;3.63;2.30;;;;;;;;;;5092423;28;20839;-68
2021/05/25 12:28:52;;;;;;;3.60;2.13;;;;;;;;;;5094718;28;20028;-67
2021/05/25 12:31:18;;;;;;;3.05;2.03;;;;;;;;;;5095802;28;20431;-68
2021/05/25 12:33:46;;;;;;;3.33;2.25;;;;;;;;;;5111264;28;20057;-68
2021/05/25 12:36:19;;;;;;;3.08;2.10;;;;;;;;;;5095313;28;20490;-66
2021/05/25 12:38:54;;;;;;;2.67;2.03;;;;;;;;;;5093501;28;20070;-68
2021/05/25 12:41:20;;;;;;;5.68;3.17;;;;;;;;;;5106937;28;20039;-68
2021/05/25 12:43:46;;;;;;;3.83;3.15;;;;;;;;;;5109701;28;20023;-69
2021/05/25 12:46:12;;;;;;;4.82;2.40;;;;;;;;;;5091151;28;20028;-67
2021/05/25 12:48:41;;;;;;;4.60;2.55;;;;;;;;;;5103321;28;20066;-67
2021/05/25 12:51:08;;;;;;;3.13;2.10;;;;;;;;;;5102329;28;20032;-67
2021/05/25 12:53:53;;;;;;;3.35;1.90;;;;;;;;;;5096397;28;20032;-68
2021/05/25 12:56:20;;;;;;;3.33;1.90;;;;;;;;;;5092828;28;20051;-66
2021/05/25 12:58:47;;;;;;;3.55;1.85;;;;;;;;;;5096445;28;20032;-68
2021/05/25 13:01:21;;;;;;;3.30;1.85;;;;;;;;;;5095238;28;20363;-68
2021/05/25 13:03:47;;;;;;;3.33;2.00;;;;;;;;;;5090957;28;20035;-70
2021/05/25 13:06:27;;;;;;;2.78;1.90;;;;;;;;;;5098034;28;20032;-66
2021/05/25 13:09:04;;;;;;;2.67;1.98;;;;;;;;;;5101509;28;20079;-68
2021/05/25 13:11:30;;;;;;;2.10;1.85;;;;;;;;;;5109572;28;20042;-70
2021/05/25 13:13:56;;;;;;;2.20;1.80;;;;;;;;;;5102632;28;20032;-70
2021/05/25 13:16:24;;;;;;;4.13;2.10;;;;;;;;;;5090439;28;20024;-69
2021/05/25 13:18:51;;;;;;;3.78;1.98;;;;;;;;;;5084077;28;20089;-69
2021/05/25 13:21:19;;;;;;;2.47;1.88;;;;;;;;;;5109402;28;20042;-69
2021/05/25 13:23:55;;;;;;;3.17;2.00;;;;;;;;;;5100232;28;20040;-70
2021/05/25 13:26:32;;;;;;;3.30;2.10;;;;;;;;;;5094774;28;20040;-69
2021/05/25 13:29:00;;;;;;;2.85;2.10;;;;;;;;;;5090771;28;20044;-71
2021/05/25 13:31:31;;;;;;;3.13;2.35;;;;;;;;;;5099730;28;20646;-67
2021/05/25 13:33:57;;;;;;;4.25;2.13;;;;;;;;;;5105797;28;20106;-70
2021/05/25 13:36:26;;;;;;;4.03;2.00;;;;;;;;;;5089928;28;20490;-70
2021/05/25 13:38:53;;;;;;;1.92;1.70;;;;;;;;;;5094236;28;20024;-68
2021/05/25 13:41:22;;;;;;;1.70;1.60;;;;;;;;;;5105816;28;20070;-69
2021/05/25 13:43:49;;;;;;;3.33;1.88;;;;;;;;;;5100782;28;20027;-71
2021/05/25 13:46:15;;;;;;;3.42;1.90;;;;;;;;;;5103985;28;20106;-70
2021/05/25 13:48:41;;;;;;;1.85;1.65;;;;;;;;;;5094494;28;20703;-70
2021/05/25 13:51:07;;;;;;;1.60;1.50;;;;;;;;;;5107482;28;20031;-70
2021/05/25 13:53:34;;;;;;;4.95;2.38;;;;;;;;;;5093682;28;20103;-70
2021/05/25 13:56:01;;;;;;;3.80;2.03;;;;;;;;;;5093569;28;20039;-69
2021/05/25 13:58:29;;;;;;;3.38;2.55;;;;;;;;;;5099809;28;20038;-70
2021/05/25 14:03:28;;;;;;;2.53;1.70;;;;;;;;;;5089810;28;20024;-70
2021/05/25 14:05:54;;;;;;;6.43;1.92;;;;;;;;;;5098311;28;20028;-70
2021/05/25 14:08:20;;;;;;;2.25;1.60;;;;;;;;;;5082162;28;20140;-70
2021/05/25 14:10:46;;;;;;;3.17;1.88;;;;;;;;;;5082770;28;20103;-70
2021/05/25 14:13:13;;;;;;;5.53;4.07;;;;;;;;;;5085204;28;20394;-70
2021/05/25 14:15:39;;;;;;;4.00;3.03;;;;;;;;;;5089441;28;20028;-69
2021/05/25 14:18:06;;;;;;;4.28;3.22;;;;;;;;;;5070896;28;20109;-69
2021/05/25 14:20:32;;;;;;;6.85;2.30;;;;;;;;;;5074385;28;20472;-69
2021/05/25 14:22:59;;;;;;;3.60;2.42;;;;;;;;;;5069099;28;20107;-70
2021/05/25 14:25:26;;;;;;;2.58;2.30;;;;;;;;;;5072866;28;20028;-71
2021/05/25 14:27:52;;;;;;;3.60;2.75;;;;;;;;;;5076142;28;20486;-70
2021/05/25 14:30:19;;;;;;;3.17;2.30;;;;;;;;;;5077430;28;20171;-70
2021/05/25 14:32:45;;;;;;;6.93;3.33;;;;;;;;;;5071469;28;20036;-72
2021/05/25 14:35:12;;;;;;;4.32;1.98;;;;;;;;;;5069215;28;20074;-69
2021/05/25 14:37:38;;;;;;;2.50;2.10;;;;;;;;;;5084217;28;20036;-70
2021/05/25 14:40:04;;;;;;;3.78;2.53;;;;;;;;;;5080758;28;20028;-69
2021/05/25 14:42:30;;;;;;;3.95;2.10;;;;;;;;;;5074825;28;20028;-69
2021/05/25 14:44:57;;;;;;;2.95;1.80;;;;;;;;;;5072490;28;20107;-69
2021/05/25 14:47:23;;;;;;;3.45;1.90;;;;;;;;;;5085604;28;20063;-70
2021/05/25 14:49:49;;;;;;;1.88;1.70;;;;;;;;;;5069055;28;20479;-67
2021/05/25 14:52:15;;;;;;;2.95;2.03;;;;;;;;;;5068953;28;20066;-67